Time,TemperatureF,DewpointF,PressureIn,WindDirection,WindDirectionDegrees,WindSpeedMPH,WindSpeedGustMPH,Humidity,HourlyPrecipIn,Conditions,Clouds,dailyrainin,SoftwareType,DateUTC
2013-06-24 00:09:00,62.9,62.0,29.85,SSW,204,4.0,-999.0,96,-99.99,,,0.00,weatherlink.com 1.10,2013-06-24 04:09:00,
2013-06-24 00:24:00,62.7,62.0,29.85,SSW,196,0.0,-999.0,96,-99.99,,,0.00,weatherlink.com 1.10,2013-06-24 04:24:00,
2013-06-24 00:39:00,62.3,61.0,29.85,SSW,196,0.0,-999.0,96,-99.99,,,0.00,weatherlink.com 1.10,2013-06-24 04:39:00,
2013-06-24 00:55:00,62.0,61.0,29.86,SSW,196,0.0,-999.0,96,-99.99,,,0.00,weatherlink.com 1.10,2013-06-24 04:55:00,
2013-06-24 01:10:00,61.3,60.0,29.86,SSW,196,0.0,-999.0,96,-99.99,,,0.00,weatherlink.com 1.10,2013-06-24 05:10:00,
2013-06-24 01:25:00,61.1,60.0,29.86,SSW,196,2.0,-999.0,96,-99.99,,,0.00,weatherlink.com 1.10,2013-06-24 05:25:00,
2013-06-24 01:40:00,60.8,60.0,29.86,SSW,196,2.0,-999.0,97,-99.99,,,0.00,weatherlink.com 1.10,2013-06-24 05:40:00,
2013-06-24 01:55:00,60.7,60.0,29.86,SSW,196,0.0,-999.0,97,-99.99,,,0.00,weatherlink.com 1.10,2013-06-24 05:55:00,
2013-06-24 02:10:00,60.6,60.0,29.86,SSW,196,0.0,-999.0,97,-99.99,,,0.00,weatherlink.com 1.10,2013-06-24 06:10:00,
2013-06-24 02:25:00,60.6,60.0,29.86,SSW,196,0.0,-999.0,97,-99.99,,,0.00,weatherlink.com 1.10,2013-06-24 06:25:00,
2013-06-24 02:40:00,60.5,60.0,29.86,SSW,196,0.0,-999.0,97,-99.99,,,0.00,weatherlink.com 1.10,2013-06-24 06:40:00,
2013-06-24 03:10:00,59.6,59.0,29.86,SSW,196,0.0,-999.0,97,-99.99,,,0.00,weatherlink.com 1.10,2013-06-24 07:10:00,
2013-06-24 03:25:00,59.1,58.0,29.86,SSW,196,0.0,-999.0,97,-99.99,,,0.00,weatherlink.com 1.10,2013-06-24 07:25:00,
2013-06-24 03:56:00,58.1,57.0,29.86,SSW,196,0.0,-999.0,97,-99.99,,,0.00,weatherlink.com 1.10,2013-06-24 07:56:00,
2013-06-24 04:11:00,58.0,57.0,29.87,SSW,196,0.0,-999.0,97,-99.99,,,0.00,weatherlink.com 1.10,2013-06-24 08:11:00,
2013-06-24 04:26:00,58.1,58.0,29.88,SSW,196,0.0,-999.0,98,-99.99,,,0.00,weatherlink.com 1.10,2013-06-24 08:26:00,
2013-06-24 04:41:00,58.1,58.0,29.88,SSW,196,0.0,-999.0,98,-99.99,,,0.00,weatherlink.com 1.10,2013-06-24 08:41:00,
2013-06-24 04:56:00,58.4,58.0,29.88,SSW,196,0.0,-999.0,98,-99.99,,,0.00,weatherlink.com 1.10,2013-06-24 08:56:00,
2013-06-24 05:11:00,58.4,58.0,29.89,SSW,196,0.0,-999.0,98,-99.99,,,0.00,weatherlink.com 1.10,2013-06-24 09:11:00,
2013-06-24 05:26:00,58.4,58.0,29.88,SSW,196,0.0,-999.0,98,-99.99,,,0.00,weatherlink.com 1.10,2013-06-24 09:26:00,
2013-06-24 05:41:00,59.0,59.0,29.89,SSW,196,0.0,-999.0,98,-99.99,,,0.00,weatherlink.com 1.10,2013-06-24 09:41:00,
2013-06-24 05:56:00,59.0,59.0,29.89,SSW,196,0.0,-999.0,98,-99.99,,,0.00,weatherlink.com 1.10,2013-06-24 09:56:00,
2013-06-24 06:11:00,59.5,59.0,29.89,SW,214,0.0,-999.0,99,-99.99,,,0.00,weatherlink.com 1.10,2013-06-24 10:11:00,
2013-06-24 06:27:00,59.4,59.0,29.90,SW,214,0.0,-999.0,99,-99.99,,,0.00,weatherlink.com 1.10,2013-06-24 10:27:00,
2013-06-24 06:57:00,60.4,60.0,29.90,SSW,196,0.0,-999.0,99,-99.99,,,0.01,weatherlink.com 1.10,2013-06-24 10:57:00,
2013-06-24 07:12:00,61.5,61.0,29.90,SSW,209,0.0,-999.0,99,-99.99,,,0.01,weatherlink.com 1.10,2013-06-24 11:12:00,
2013-06-24 07:27:00,61.9,62.0,29.90,SW,224,0.0,-999.0,99,-99.99,,,0.01,weatherlink.com 1.10,2013-06-24 11:27:00,
2013-06-24 07:42:00,62.6,62.0,29.91,SSW,199,0.0,-999.0,99,-99.99,,,0.01,weatherlink.com 1.10,2013-06-24 11:42:00,
2013-06-24 07:57:00,63.3,63.0,29.90,SSW,199,0.0,-999.0,99,-99.99,,,0.01,weatherlink.com 1.10,2013-06-24 11:57:00,
2013-06-24 08:12:00,64.1,64.0,29.90,SSW,199,0.0,-999.0,99,-99.99,,,0.01,weatherlink.com 1.10,2013-06-24 12:12:00,
2013-06-24 08:27:00,65.3,65.0,29.90,SSW,199,0.0,-999.0,99,-99.99,,,0.01,weatherlink.com 1.10,2013-06-24 12:27:00,
2013-06-24 08:42:00,66.3,66.0,29.91,SSW,199,0.0,-999.0,98,-99.99,,,0.01,weatherlink.com 1.10,2013-06-24 12:42:00,
2013-06-24 08:57:00,67.2,66.0,29.91,SSW,199,0.0,-999.0,97,-99.99,,,0.01,weatherlink.com 1.10,2013-06-24 12:57:00,
2013-06-24 09:28:00,69.7,68.0,29.91,SW,229,0.0,-999.0,93,-99.99,,,0.01,weatherlink.com 1.10,2013-06-24 13:28:00,
2013-06-24 09:43:00,71.3,68.0,29.92,SW,236,1.0,-999.0,89,-99.99,,,0.01,weatherlink.com 1.10,2013-06-24 13:43:00,
2013-06-24 09:58:00,72.7,69.0,29.93,SW,227,0.0,-999.0,87,-99.99,,,0.01,weatherlink.com 1.10,2013-06-24 13:58:00,
2013-06-24 10:13:00,74.2,70.0,29.93,WSW,251,0.0,-999.0,85,-99.99,,,0.01,weatherlink.com 1.10,2013-06-24 14:13:00,
2013-06-24 10:28:00,75.5,70.0,29.93,WSW,252,0.0,-999.0,83,-99.99,,,0.01,weatherlink.com 1.10,2013-06-24 14:28:00,
2013-06-24 10:43:00,77.5,68.0,29.92,WSW,238,0.0,-999.0,73,-99.99,,,0.01,weatherlink.com 1.10,2013-06-24 14:43:00,
2013-06-24 10:59:00,78.3,65.0,29.92,WNW,303,0.0,-999.0,64,-99.99,,,0.01,weatherlink.com 1.10,2013-06-24 14:59:00,
2013-06-24 11:14:00,78.8,64.0,29.91,NW,304,0.0,-999.0,61,-99.99,,,0.01,weatherlink.com 1.10,2013-06-24 15:14:00,
2013-06-24 11:29:00,79.0,63.0,29.91,NNE,27,0.0,-999.0,59,-99.99,,,0.01,weatherlink.com 1.10,2013-06-24 15:29:00,
2013-06-24 11:44:00,79.4,63.0,29.91,NE,42,0.0,-999.0,58,-99.99,,,0.01,weatherlink.com 1.10,2013-06-24 15:44:00,
2013-06-24 11:59:00,79.7,64.0,29.91,NE,36,1.0,-999.0,60,-99.99,,,0.01,weatherlink.com 1.10,2013-06-24 15:59:00,
2013-06-24 12:14:00,79.9,66.0,29.91,South,190,1.0,-999.0,63,-99.99,,,0.01,weatherlink.com 1.10,2013-06-24 16:14:00,
2013-06-24 12:29:00,81.1,67.0,29.91,South,175,0.0,-999.0,62,-99.99,,,0.01,weatherlink.com 1.10,2013-06-24 16:29:00,
2013-06-24 12:59:00,82.2,69.0,29.90,SW,215,0.0,-999.0,64,-99.99,,,0.01,weatherlink.com 1.10,2013-06-24 16:59:00,
2013-06-24 13:15:00,82.2,64.0,29.90,SW,236,0.0,-999.0,55,-99.99,,,0.01,weatherlink.com 1.10,2013-06-24 17:15:00,
2013-06-24 13:29:00,82.6,66.0,29.89,WSW,240,0.0,-999.0,57,-99.99,,,0.01,weatherlink.com 1.10,2013-06-24 17:29:00,
2013-06-24 14:15:00,83.6,66.0,29.88,SW,235,5.0,-999.0,56,-99.99,,,0.01,weatherlink.com 1.10,2013-06-24 18:15:00,
2013-06-24 15:00:00,82.8,65.0,29.85,SW,217,9.0,-999.0,56,-99.99,,,0.01,weatherlink.com 1.10,2013-06-24 19:00:00,
2013-06-24 15:15:00,84.0,65.0,29.85,WSW,238,0.0,-999.0,53,-99.99,,,0.01,weatherlink.com 1.10,2013-06-24 19:15:00,
2013-06-24 15:30:00,84.4,65.0,29.85,SW,214,5.0,-999.0,52,-99.99,,,0.01,weatherlink.com 1.10,2013-06-24 19:30:00,
2013-06-24 15:45:00,83.6,67.0,29.84,SSW,194,0.0,-999.0,57,-99.99,,,0.01,weatherlink.com 1.10,2013-06-24 19:45:00,
2013-06-24 16:00:00,82.9,68.0,29.83,SSW,205,0.0,-999.0,61,-99.99,,,0.01,weatherlink.com 1.10,2013-06-24 20:00:00,
2013-06-24 16:16:00,82.9,68.0,29.83,SSW,192,6.0,-999.0,62,-99.99,,,0.01,weatherlink.com 1.10,2013-06-24 20:16:00,
2013-06-24 16:31:00,81.9,65.0,29.82,NNE,13,1.0,-999.0,57,-99.99,,,0.01,weatherlink.com 1.10,2013-06-24 20:31:00,
2013-06-24 16:46:00,78.7,62.0,29.82,North,5,0.0,-999.0,57,-99.99,,,0.01,weatherlink.com 1.10,2013-06-24 20:46:00,
2013-06-24 17:01:00,77.1,64.0,29.81,NNE,20,4.0,-999.0,64,-99.99,,,0.01,weatherlink.com 1.10,2013-06-24 21:01:00,
2013-06-24 17:16:00,78.0,65.0,29.80,ENE,71,2.0,-999.0,64,-99.99,,,0.01,weatherlink.com 1.10,2013-06-24 21:16:00,
2013-06-24 17:31:00,79.5,69.0,29.80,SSW,196,0.0,-999.0,71,-99.99,,,0.01,weatherlink.com 1.10,2013-06-24 21:31:00,
2013-06-24 17:46:00,81.0,69.0,29.80,South,186,0.0,-999.0,68,-99.99,,,0.01,weatherlink.com 1.10,2013-06-24 21:46:00,
2013-06-24 18:01:00,81.0,69.0,29.80,South,173,4.0,-999.0,68,-99.99,,,0.01,weatherlink.com 1.10,2013-06-24 22:01:00,
2013-06-24 18:46:00,80.0,70.0,29.80,South,183,0.0,-999.0,71,-99.99,,,0.01,weatherlink.com 1.10,2013-06-24 22:46:00,
2013-06-24 19:17:00,79.9,70.0,29.80,SSE,168,0.0,-999.0,71,-99.99,,,0.01,weatherlink.com 1.10,2013-06-24 23:17:00,
2013-06-24 19:47:00,79.2,70.0,29.79,South,188,3.0,-999.0,74,-99.99,,,0.01,weatherlink.com 1.10,2013-06-24 23:47:00,
2013-06-24 20:17:00,77.5,70.0,29.79,South,179,0.0,-999.0,78,-99.99,,,0.01,weatherlink.com 1.10,2013-06-25 00:17:00,
2013-06-24 20:32:00,76.7,70.0,29.79,South,179,5.0,-999.0,79,-99.99,,,0.01,weatherlink.com 1.10,2013-06-25 00:32:00,
2013-06-24 21:02:00,75.6,70.0,29.78,South,174,0.0,-999.0,82,-99.99,,,0.01,weatherlink.com 1.10,2013-06-25 01:02:00,
2013-06-24 21:32:00,74.3,70.0,29.77,South,181,0.0,-999.0,85,-99.99,,,0.01,weatherlink.com 1.10,2013-06-25 01:32:00,
2013-06-24 21:47:00,73.7,69.0,29.77,South,172,0.0,-999.0,86,-99.99,,,0.01,weatherlink.com 1.10,2013-06-25 01:47:00,
2013-06-24 22:02:00,73.2,69.0,29.79,SSW,205,4.0,-999.0,86,-99.99,,,0.02,weatherlink.com 1.10,2013-06-25 02:02:00,
2013-06-24 22:18:00,70.9,67.0,29.78,SW,225,0.0,-999.0,86,-99.99,,,0.04,weatherlink.com 1.10,2013-06-25 02:18:00,
2013-06-24 22:33:00,70.1,67.0,29.79,South,187,6.0,-999.0,88,-99.99,,,0.04,weatherlink.com 1.10,2013-06-25 02:33:00,
2013-06-24 23:33:00,68.5,66.0,29.80,South,173,0.0,-999.0,91,-99.99,,,0.04,weatherlink.com 1.10,2013-06-25 03:33:00,